createdAt,value
2022-10-08T00:00:03.688Z,6.20
2022-10-08T00:00:13.775Z,6.30
2022-10-08T00:00:23.808Z,6.00
2022-10-08T00:00:33.927Z,6.10
2022-10-08T00:00:43.968Z,6.00
2022-10-08T00:00:54.038Z,6.40
2022-10-08T00:01:04.121Z,6.50
2022-10-08T00:01:14.058Z,6.30
2022-10-08T00:01:24.150Z,5.80
2022-10-08T00:01:34.275Z,5.80
2022-10-08T00:01:44.394Z,6.10
2022-10-08T00:01:54.506Z,6.40
2022-10-08T00:02:04.598Z,6.30
2022-10-08T00:02:14.762Z,5.60
2022-10-08T00:02:24.815Z,5.50
2022-10-08T00:02:34.896Z,5.20
2022-10-08T00:02:45.204Z,5.60
2022-10-08T00:02:55.065Z,5.60
2022-10-08T00:03:05.108Z,5.70
2022-10-08T00:03:15.148Z,5.30
2022-10-08T00:03:25.217Z,5.40
2022-10-08T00:03:35.268Z,5.40
2022-10-08T00:03:45.371Z,6.00
2022-10-08T00:03:55.327Z,5.80
2022-10-08T00:04:05.428Z,5.80
2022-10-08T00:04:15.507Z,5.40
2022-10-08T00:04:25.584Z,5.70
2022-10-08T00:04:35.688Z,5.90
2022-10-08T00:04:45.783Z,6.10
2022-10-08T00:04:55.818Z,5.70
2022-10-08T00:05:05.858Z,5.70
2022-10-08T00:05:15.909Z,6.10
2022-10-08T00:05:25.939Z,6.40
2022-10-08T00:05:36.061Z,6.20
2022-10-08T00:05:46.107Z,5.90
2022-10-08T00:05:56.157Z,5.90
2022-10-08T00:06:06.285Z,5.80
2022-10-08T00:06:16.306Z,5.40
2022-10-08T00:06:26.346Z,5.10
2022-10-08T00:06:36.406Z,5.50
2022-10-08T00:06:46.463Z,5.60
2022-10-08T00:06:56.507Z,5.60
2022-10-08T00:07:06.577Z,5.60
2022-10-08T00:07:16.628Z,5.70
2022-10-08T00:07:26.677Z,6.00
2022-10-08T00:07:36.787Z,6.00
2022-10-08T00:07:46.855Z,6.20
2022-10-08T00:07:56.987Z,5.80
2022-10-08T00:08:07.117Z,5.80
2022-10-08T00:08:17.147Z,5.50
2022-10-08T00:08:27.198Z,5.70
2022-10-08T00:08:37.251Z,5.60
2022-10-08T00:08:47.349Z,5.70
2022-10-08T00:08:57.398Z,5.80
2022-10-08T00:09:07.440Z,5.70
2022-10-08T00:09:17.467Z,5.60
2022-10-08T00:09:27.520Z,5.90
2022-10-08T00:09:37.577Z,5.70
2022-10-08T00:09:47.598Z,5.80
2022-10-08T00:09:57.677Z,5.70
2022-10-08T00:10:07.787Z,6.20
2022-10-08T00:10:17.823Z,6.30
2022-10-08T00:10:27.856Z,6.90
2022-10-08T00:10:37.906Z,6.50
2022-10-08T00:10:47.986Z,6.00
2022-10-08T00:10:58.056Z,5.60
2022-10-08T00:11:08.085Z,5.90
2022-10-08T00:11:18.196Z,6.30
2022-10-08T00:11:28.106Z,6.20
2022-10-08T00:11:38.212Z,6.00
2022-10-08T00:11:48.246Z,6.00
2022-10-08T00:11:58.285Z,5.70
2022-10-08T00:12:08.350Z,5.90
2022-10-08T00:12:18.469Z,5.70
2022-10-08T00:12:28.507Z,5.60
2022-10-08T00:12:38.604Z,5.60
2022-10-08T00:12:49.043Z,6.00
2022-10-08T00:12:58.666Z,6.20
2022-10-08T00:13:08.726Z,6.30
2022-10-08T00:13:18.747Z,6.30
2022-10-08T00:13:28.798Z,5.60
2022-10-08T00:13:38.845Z,5.10
2022-10-08T00:13:48.887Z,4.90
2022-10-08T00:13:58.957Z,5.30
2022-10-08T00:14:09.008Z,5.60
2022-10-08T00:14:19.027Z,5.80
2022-10-08T00:14:29.128Z,5.80
2022-10-08T00:14:39.249Z,5.70
2022-10-08T00:14:49.317Z,6.00
2022-10-08T00:14:59.405Z,6.30
2022-10-08T00:15:09.441Z,6.30
2022-10-08T00:15:19.496Z,5.70
2022-10-08T00:15:29.639Z,5.50
2022-10-08T00:15:39.677Z,6.00
2022-10-08T00:15:49.841Z,6.10
2022-10-08T00:15:59.959Z,6.00
2022-10-08T00:16:10.083Z,5.90
2022-10-08T00:16:20.035Z,5.70
2022-10-08T00:16:30.148Z,6.10
2022-10-08T00:16:40.363Z,6.30
2022-10-08T00:16:50.336Z,6.60
2022-10-08T00:17:00.367Z,6.20
2022-10-08T00:17:10.434Z,5.70
2022-10-08T00:17:20.606Z,5.50
2022-10-08T00:17:30.643Z,5.80
2022-10-08T00:17:40.747Z,6.10
2022-10-08T00:17:50.807Z,6.00
2022-10-08T00:18:00.846Z,5.90
2022-10-08T00:18:10.904Z,6.30
2022-10-08T00:18:20.957Z,6.60
2022-10-08T00:18:31.009Z,6.50
2022-10-08T00:18:41.071Z,6.00
2022-10-08T00:18:51.186Z,5.70
2022-10-08T00:19:01.218Z,5.70
2022-10-08T00:19:11.247Z,5.60
2022-10-08T00:19:21.286Z,6.00
2022-10-08T00:19:31.367Z,5.80
2022-10-08T00:19:41.478Z,5.80
2022-10-08T00:19:51.495Z,5.90
2022-10-08T00:20:01.546Z,5.70
2022-10-08T00:20:11.667Z,6.00
2022-10-08T00:20:21.676Z,5.80
2022-10-08T00:20:31.716Z,6.00
2022-10-08T00:20:41.768Z,5.90
2022-10-08T00:20:51.825Z,6.00
2022-10-08T00:21:01.871Z,6.10
2022-10-08T00:21:11.907Z,6.40
2022-10-08T00:21:21.966Z,6.60
2022-10-08T00:21:32.014Z,6.60
2022-10-08T00:21:42.055Z,6.30
2022-10-08T00:21:52.098Z,6.20
2022-10-08T00:22:02.172Z,5.80
2022-10-08T00:22:12.175Z,5.90
2022-10-08T00:22:22.235Z,6.30
2022-10-08T00:22:32.267Z,6.50
2022-10-08T00:22:42.335Z,6.70
2022-10-08T00:22:52.371Z,6.30
2022-10-08T00:23:02.477Z,6.60
2022-10-08T00:23:12.503Z,6.50
2022-10-08T00:23:22.557Z,6.60
2022-10-08T00:23:32.604Z,6.00
2022-10-08T00:23:42.636Z,5.60
2022-10-08T00:23:52.675Z,5.70
2022-10-08T00:24:02.776Z,6.10
2022-10-08T00:24:12.814Z,6.20
2022-10-08T00:24:22.845Z,6.20
2022-10-08T00:24:32.889Z,6.30
2022-10-08T00:24:42.956Z,6.70
2022-10-08T00:24:52.986Z,6.50
2022-10-08T00:25:03.086Z,6.30
2022-10-08T00:25:13.213Z,6.20
2022-10-08T00:25:23.275Z,6.50
2022-10-08T00:25:33.346Z,6.60
2022-10-08T00:25:43.395Z,6.40
2022-10-08T00:25:53.495Z,6.50
2022-10-08T00:26:03.552Z,6.20
2022-10-08T00:26:13.583Z,6.10
2022-10-08T00:26:23.635Z,6.30
2022-10-08T00:26:33.666Z,6.50
2022-10-08T00:26:44.471Z,6.70
2022-10-08T00:26:53.695Z,6.40
2022-10-08T00:27:03.726Z,6.60
2022-10-08T00:27:13.756Z,6.50
2022-10-08T00:27:23.776Z,6.20
2022-10-08T00:27:33.836Z,5.90
2022-10-08T00:27:43.892Z,5.70
2022-10-08T00:27:53.916Z,5.90
2022-10-08T00:28:03.978Z,6.00
2022-10-08T00:28:14.091Z,5.80
2022-10-08T00:28:24.138Z,6.20
2022-10-08T00:28:34.355Z,6.10
2022-10-08T00:28:44.348Z,6.30
2022-10-08T00:28:54.228Z,5.90
2022-10-08T00:29:04.337Z,5.90
2022-10-08T00:29:14.467Z,6.00
2022-10-08T00:29:24.473Z,6.20
2022-10-08T00:29:34.503Z,6.70
2022-10-08T00:29:44.607Z,6.70
2022-10-08T00:29:54.675Z,7.00
2022-10-08T00:30:04.715Z,6.90
2022-10-08T00:30:14.795Z,6.90
2022-10-08T00:30:24.826Z,7.20
2022-10-08T00:30:34.864Z,7.60
2022-10-08T00:30:44.956Z,8.50
2022-10-08T00:30:54.995Z,8.60
2022-10-08T00:31:05.089Z,8.40
2022-10-08T00:31:15.183Z,7.60
2022-10-08T00:31:25.245Z,7.40
2022-10-08T00:31:35.357Z,7.10
2022-10-08T00:31:45.661Z,7.60
2022-10-08T00:31:55.598Z,7.70
2022-10-08T00:32:05.515Z,7.90
2022-10-08T00:32:15.567Z,7.50
2022-10-08T00:32:25.595Z,7.20
2022-10-08T00:32:35.639Z,7.50
2022-10-08T00:32:46.013Z,7.60
2022-10-08T00:32:59.809Z,7.50
2022-10-08T00:33:05.996Z,7.10
2022-10-08T00:33:16.033Z,7.30
2022-10-08T00:33:26.095Z,7.50
2022-10-08T00:33:36.172Z,7.30
2022-10-08T00:33:46.295Z,7.20
2022-10-08T00:33:56.349Z,6.90
2022-10-08T00:34:06.378Z,7.20
2022-10-08T00:34:16.414Z,7.30
2022-10-08T00:34:26.512Z,7.20
2022-10-08T00:34:36.585Z,6.50
2022-10-08T00:34:46.666Z,5.90
2022-10-08T00:34:56.738Z,5.70
2022-10-08T00:35:06.805Z,5.90
2022-10-08T00:35:16.871Z,6.20
2022-10-08T00:35:26.935Z,6.00
2022-10-08T00:35:36.985Z,6.30
2022-10-08T00:35:47.085Z,6.40
2022-10-08T00:35:57.122Z,6.80
2022-10-08T00:36:07.174Z,6.80
2022-10-08T00:36:17.225Z,6.40
2022-10-08T00:36:27.285Z,6.40
2022-10-08T00:36:37.315Z,5.80
2022-10-08T00:36:47.465Z,5.50
2022-10-08T00:36:57.494Z,5.50
2022-10-08T00:37:07.525Z,6.10
2022-10-08T00:37:17.581Z,6.60
2022-10-08T00:37:27.625Z,6.60
2022-10-08T00:37:37.722Z,6.20
2022-10-08T00:37:47.803Z,5.90
2022-10-08T00:37:57.865Z,5.90
2022-10-08T00:38:07.923Z,6.10
2022-10-08T00:38:17.995Z,6.10
2022-10-08T00:38:28.134Z,6.20
2022-10-08T00:38:38.207Z,6.20
2022-10-08T00:38:48.264Z,5.90
2022-10-08T00:38:58.338Z,5.70
2022-10-08T00:39:08.405Z,5.60
2022-10-08T00:39:18.460Z,5.70
2022-10-08T00:39:28.556Z,5.90
2022-10-08T00:39:38.594Z,6.10
2022-10-08T00:39:48.625Z,6.00
2022-10-08T00:39:58.653Z,6.10
2022-10-08T00:40:08.686Z,5.90
2022-10-08T00:40:18.704Z,6.00
2022-10-08T00:40:28.734Z,6.20
2022-10-08T00:40:38.755Z,6.20
2022-10-08T00:40:48.794Z,6.20
2022-10-08T00:40:58.805Z,5.80
2022-10-08T00:41:08.875Z,6.00
2022-10-08T00:41:18.936Z,6.10
2022-10-08T00:41:29.028Z,6.30
2022-10-08T00:41:39.085Z,6.10
2022-10-08T00:41:49.154Z,5.90
2022-10-08T00:41:59.172Z,5.80
2022-10-08T00:42:09.204Z,6.00
2022-10-08T00:42:19.255Z,5.90
2022-10-08T00:42:29.296Z,6.10
2022-10-08T00:42:39.322Z,6.00
2022-10-08T00:42:49.755Z,5.90
2022-10-08T00:42:59.423Z,5.50
2022-10-08T00:43:09.444Z,5.80
2022-10-08T00:43:22.799Z,6.00
2022-10-08T00:43:30.445Z,6.50
2022-10-08T00:43:40.471Z,6.50
2022-10-08T00:43:50.504Z,6.60
2022-10-08T00:44:00.544Z,6.20
2022-10-08T00:44:10.592Z,6.00
2022-10-08T00:44:20.656Z,6.10
2022-10-08T00:44:30.683Z,5.70
2022-10-08T00:44:40.804Z,5.80
2022-10-08T00:44:50.917Z,5.50
2022-10-08T00:45:00.935Z,5.50
2022-10-08T00:45:10.963Z,5.60
2022-10-08T00:45:21.047Z,5.70
2022-10-08T00:45:31.113Z,5.60
2022-10-08T00:45:41.208Z,5.80
2022-10-08T00:45:51.305Z,6.10
2022-10-08T00:46:01.425Z,6.50
2022-10-08T00:46:11.494Z,6.60
2022-10-08T00:46:21.545Z,6.20
2022-10-08T00:46:31.581Z,6.20
2022-10-08T00:46:41.624Z,5.50
2022-10-08T00:46:51.673Z,5.90
2022-10-08T00:47:01.698Z,5.80
2022-10-08T00:47:11.736Z,6.30
2022-10-08T00:47:21.764Z,6.00
2022-10-08T00:47:31.795Z,6.40
2022-10-08T00:47:41.845Z,6.10
2022-10-08T00:47:51.894Z,6.10
2022-10-08T00:48:01.915Z,5.80
2022-10-08T00:48:11.955Z,6.20
2022-10-08T00:48:22.030Z,6.20
2022-10-08T00:48:32.065Z,6.20
2022-10-08T00:48:42.102Z,6.10
2022-10-08T00:48:52.163Z,5.80
2022-10-08T00:49:02.193Z,6.10
2022-10-08T00:49:12.224Z,6.00
2022-10-08T00:49:22.263Z,6.10
2022-10-08T00:49:32.285Z,5.80
2022-10-08T00:49:42.404Z,6.10
2022-10-08T00:49:52.435Z,6.10
2022-10-08T00:50:02.463Z,6.10
2022-10-08T00:50:12.514Z,5.90
2022-10-08T00:50:22.607Z,6.30
2022-10-08T00:50:32.634Z,5.90
2022-10-08T00:50:42.723Z,6.00
2022-10-08T00:50:52.754Z,6.00
2022-10-08T00:51:02.797Z,6.10
2022-10-08T00:51:12.834Z,6.00
2022-10-08T00:51:22.873Z,5.60
2022-10-08T00:51:32.894Z,5.70
2022-10-08T00:51:42.953Z,5.80
2022-10-08T00:51:52.992Z,6.20
2022-10-08T00:52:03.034Z,5.90
2022-10-08T00:52:13.083Z,5.70
2022-10-08T00:52:23.134Z,5.70
2022-10-08T00:52:33.173Z,5.80
2022-10-08T00:52:43.300Z,5.70
2022-10-08T00:52:53.234Z,5.40
2022-10-08T00:53:03.295Z,5.70
2022-10-08T00:53:13.315Z,6.10
2022-10-08T00:53:23.365Z,6.20
2022-10-08T00:53:33.414Z,6.30
2022-10-08T00:53:43.444Z,6.20
2022-10-08T00:53:53.531Z,6.20
2022-10-08T00:54:03.582Z,6.50
2022-10-08T00:54:13.663Z,6.40
2022-10-08T00:54:23.724Z,6.30
2022-10-08T00:54:33.802Z,5.90
2022-10-08T00:54:43.912Z,5.80
2022-10-08T00:54:53.934Z,5.90
2022-10-08T00:55:03.988Z,5.80
2022-10-08T00:55:14.034Z,5.80
2022-10-08T00:55:24.074Z,5.60
2022-10-08T00:55:34.114Z,5.90
2022-10-08T00:55:44.285Z,5.80
2022-10-08T00:55:54.374Z,6.00
2022-10-08T00:56:04.432Z,5.70
2022-10-08T00:56:14.487Z,5.70
2022-10-08T00:56:24.571Z,6.00
2022-10-08T00:56:34.637Z,6.30
2022-10-08T00:56:44.742Z,6.70
2022-10-08T00:56:54.784Z,6.60
2022-10-08T00:57:04.823Z,6.10
2022-10-08T00:57:14.874Z,6.30
2022-10-08T00:57:24.915Z,6.20
2022-10-08T00:57:34.995Z,6.60
2022-10-08T00:57:45.036Z,6.00
2022-10-08T00:57:55.085Z,6.00
2022-10-08T00:58:05.223Z,6.00
2022-10-08T00:58:15.365Z,6.30
2022-10-08T00:58:25.444Z,6.50
2022-10-08T00:58:35.501Z,6.30
2022-10-08T00:58:45.542Z,6.00
2022-10-08T00:58:55.601Z,6.20
2022-10-08T00:59:05.632Z,6.20
2022-10-08T00:59:15.674Z,6.30
2022-10-08T00:59:25.743Z,6.10
2022-10-08T00:59:35.785Z,6.10
2022-10-08T00:59:45.834Z,6.50
2022-10-08T00:59:55.878Z,6.40
2022-10-08T01:00:05.905Z,6.60
2022-10-08T01:00:15.945Z,6.70
2022-10-08T01:00:26.016Z,6.60
2022-10-08T01:00:36.207Z,6.50
2022-10-08T01:00:46.111Z,5.90
2022-10-08T01:00:56.265Z,6.10
2022-10-08T01:01:06.223Z,6.40
2022-10-08T01:01:16.415Z,6.60
2022-10-08T01:01:26.391Z,6.90
2022-10-08T01:01:36.662Z,6.40
2022-10-08T01:01:46.556Z,6.30
2022-10-08T01:01:56.604Z,6.10
2022-10-08T01:02:06.666Z,6.50
2022-10-08T01:02:16.759Z,6.50
2022-10-08T01:02:26.842Z,6.60
2022-10-08T01:02:36.894Z,6.10
2022-10-08T01:02:47.217Z,6.20
2022-10-08T01:02:56.926Z,6.30
2022-10-08T01:03:06.954Z,6.30
2022-10-08T01:03:17.098Z,6.20
2022-10-08T01:03:27.124Z,6.00
2022-10-08T01:03:37.184Z,5.90
2022-10-08T01:03:47.224Z,6.00
2022-10-08T01:03:57.272Z,6.30
2022-10-08T01:04:07.330Z,6.50
2022-10-08T01:04:17.353Z,6.50
2022-10-08T01:04:27.450Z,6.50
2022-10-08T01:04:37.500Z,6.40
2022-10-08T01:04:47.533Z,6.70
2022-10-08T01:04:57.583Z,6.30
2022-10-08T01:05:07.634Z,6.20
2022-10-08T01:05:17.653Z,5.80
2022-10-08T01:05:27.705Z,6.00
2022-10-08T01:05:37.763Z,6.20
2022-10-08T01:05:47.802Z,6.50
2022-10-08T01:05:57.854Z,6.60
2022-10-08T01:06:07.914Z,6.40
2022-10-08T01:06:17.941Z,6.60
2022-10-08T01:06:27.984Z,7.00
2022-10-08T01:06:38.005Z,7.00
2022-10-08T01:06:48.032Z,6.70
2022-10-08T01:06:58.113Z,6.00
2022-10-08T01:07:08.151Z,6.30
2022-10-08T01:07:18.222Z,6.70
2022-10-08T01:07:28.261Z,6.90
2022-10-08T01:07:38.301Z,6.40
2022-10-08T01:07:48.362Z,6.30
2022-10-08T01:07:58.394Z,6.40
2022-10-08T01:08:08.433Z,6.40
2022-10-08T01:08:18.511Z,6.20
2022-10-08T01:08:28.583Z,6.10
2022-10-08T01:08:38.623Z,6.50
2022-10-08T01:08:48.695Z,6.40
2022-10-08T01:08:58.731Z,6.40
2022-10-08T01:09:08.784Z,6.30
2022-10-08T01:09:19.551Z,6.80
2022-10-08T01:09:29.016Z,6.80
2022-10-08T01:09:39.070Z,6.60
2022-10-08T01:09:49.124Z,6.20
2022-10-08T01:09:59.204Z,5.90
2022-10-08T01:10:09.285Z,5.80
2022-10-08T01:10:19.313Z,5.70
2022-10-08T01:10:29.356Z,5.70
2022-10-08T01:10:39.417Z,5.70
2022-10-08T01:10:49.454Z,5.80
2022-10-08T01:10:59.495Z,6.30
2022-10-08T01:11:09.554Z,6.70
2022-10-08T01:11:19.610Z,6.20
2022-10-08T01:11:29.693Z,5.70
2022-10-08T01:11:39.763Z,5.60
2022-10-08T01:11:49.922Z,6.40
2022-10-08T01:11:59.844Z,6.50
2022-10-08T01:12:09.890Z,6.70
2022-10-08T01:12:19.973Z,6.30
2022-10-08T01:12:30.012Z,6.60
2022-10-08T01:12:40.064Z,6.10
2022-10-08T01:12:50.105Z,6.10
2022-10-08T01:13:00.166Z,6.00
2022-10-08T01:13:10.201Z,6.40
2022-10-08T01:13:20.236Z,6.50
2022-10-08T01:13:30.311Z,6.50
2022-10-08T01:13:40.366Z,6.40
2022-10-08T01:13:50.411Z,6.20
2022-10-08T01:14:00.452Z,6.60
2022-10-08T01:14:10.523Z,6.70
2022-10-08T01:14:20.600Z,7.20
2022-10-08T01:14:30.692Z,6.90
2022-10-08T01:14:40.740Z,6.40
2022-10-08T01:14:50.817Z,6.10
2022-10-08T01:15:00.849Z,6.30
2022-10-08T01:15:10.952Z,6.60
2022-10-08T01:15:21.063Z,6.70
2022-10-08T01:15:31.103Z,6.60
2022-10-08T01:15:41.172Z,6.60
2022-10-08T01:15:51.211Z,6.50
2022-10-08T01:16:01.326Z,6.50
2022-10-08T01:16:11.396Z,6.70
2022-10-08T01:16:21.509Z,7.10
2022-10-08T01:16:31.618Z,6.80
2022-10-08T01:16:41.716Z,6.60
2022-10-08T01:16:51.754Z,6.30
2022-10-08T01:17:01.892Z,6.30
2022-10-08T01:17:11.923Z,6.10
2022-10-08T01:17:21.962Z,5.70
2022-10-08T01:17:32.012Z,5.60
2022-10-08T01:17:42.052Z,5.70
2022-10-08T01:17:52.150Z,6.40
2022-10-08T01:18:02.192Z,6.10
2022-10-08T01:18:12.251Z,6.20
2022-10-08T01:18:22.309Z,6.00
2022-10-08T01:18:32.359Z,6.30
2022-10-08T01:18:42.472Z,6.50
2022-10-08T01:18:52.504Z,6.10
2022-10-08T01:19:02.563Z,6.40
2022-10-08T01:19:12.646Z,6.90
2022-10-08T01:19:22.691Z,7.20
2022-10-08T01:19:32.742Z,6.80
2022-10-08T01:19:42.783Z,6.10
2022-10-08T01:19:52.830Z,6.60
2022-10-08T01:20:02.962Z,6.60
2022-10-08T01:20:13.034Z,6.80
2022-10-08T01:20:23.060Z,6.80
2022-10-08T01:20:33.102Z,6.80
2022-10-08T01:20:43.164Z,6.80
2022-10-08T01:20:53.262Z,6.70
2022-10-08T01:21:03.330Z,6.70
2022-10-08T01:21:13.434Z,6.60
2022-10-08T01:21:23.492Z,6.30
2022-10-08T01:21:33.564Z,6.40
2022-10-08T01:21:43.599Z,6.40
2022-10-08T01:21:53.681Z,6.40
2022-10-08T01:22:03.713Z,6.60
2022-10-08T01:22:13.792Z,6.60
2022-10-08T01:22:23.851Z,6.50
2022-10-08T01:22:33.921Z,6.60
2022-10-08T01:22:44.267Z,6.80
2022-10-08T01:22:54.093Z,7.10
2022-10-08T01:23:04.132Z,7.10
2022-10-08T01:23:14.173Z,6.90
2022-10-08T01:23:24.222Z,6.70
2022-10-08T01:23:34.263Z,6.30
2022-10-08T01:23:44.332Z,6.40
2022-10-08T01:23:54.441Z,6.60
2022-10-08T01:24:04.471Z,6.60
2022-10-08T01:24:14.645Z,6.50
2022-10-08T01:24:24.683Z,6.60
2022-10-08T01:24:34.792Z,6.80
2022-10-08T01:24:44.835Z,6.80
2022-10-08T01:24:54.881Z,6.60
2022-10-08T01:25:04.940Z,6.90
2022-10-08T01:25:14.980Z,6.70
2022-10-08T01:25:25.042Z,6.70
2022-10-08T01:25:35.133Z,6.40
2022-10-08T01:25:45.184Z,6.40
2022-10-08T01:25:55.222Z,6.40
2022-10-08T01:26:05.266Z,6.20
2022-10-08T01:26:15.323Z,6.50
2022-10-08T01:26:25.371Z,6.50
2022-10-08T01:26:35.452Z,6.60
2022-10-08T01:26:45.515Z,6.80
2022-10-08T01:26:55.572Z,6.60
2022-10-08T01:27:05.621Z,6.60
2022-10-08T01:27:15.652Z,6.60
2022-10-08T01:27:25.775Z,6.80
2022-10-08T01:27:35.819Z,6.80
2022-10-08T01:27:45.854Z,6.70
2022-10-08T01:27:55.899Z,6.80
2022-10-08T01:28:05.962Z,6.80
2022-10-08T01:28:16.063Z,6.50
2022-10-08T01:28:26.030Z,6.70
2022-10-08T01:28:36.104Z,6.30
2022-10-08T01:28:46.252Z,6.60
2022-10-08T01:28:56.300Z,6.40
2022-10-08T01:29:06.340Z,6.30
2022-10-08T01:29:16.469Z,6.00
2022-10-08T01:29:26.517Z,5.90
2022-10-08T01:29:36.550Z,6.10
2022-10-08T01:29:46.592Z,6.30
2022-10-08T01:29:56.662Z,6.60
2022-10-08T01:30:06.794Z,6.90
2022-10-08T01:30:16.803Z,7.00
2022-10-08T01:30:26.935Z,7.10
2022-10-08T01:30:36.982Z,6.70
2022-10-08T01:30:47.065Z,7.10
2022-10-08T01:30:57.130Z,6.90
2022-10-08T01:31:07.290Z,7.30
2022-10-08T01:31:17.219Z,6.60
2022-10-08T01:31:27.328Z,6.70
2022-10-08T01:31:37.450Z,6.80
2022-10-08T01:31:47.402Z,7.20
2022-10-08T01:31:57.509Z,7.00
2022-10-08T01:32:07.541Z,6.10
2022-10-08T01:32:17.588Z,6.00
2022-10-08T01:32:27.612Z,6.00
2022-10-08T01:32:37.788Z,6.60
2022-10-08T01:32:48.278Z,6.20
2022-10-08T01:32:57.971Z,6.20
2022-10-08T01:33:08.014Z,5.90
2022-10-08T01:33:18.052Z,6.70
2022-10-08T01:33:28.112Z,7.10
2022-10-08T01:33:38.179Z,7.20
2022-10-08T01:33:48.245Z,7.00
2022-10-08T01:33:58.290Z,6.90
2022-10-08T01:34:08.321Z,7.00
2022-10-08T01:34:18.411Z,6.70
2022-10-08T01:34:28.450Z,6.80
2022-10-08T01:34:38.496Z,6.60
2022-10-08T01:34:48.521Z,6.50
2022-10-08T01:34:58.571Z,6.30
2022-10-08T01:35:08.599Z,6.30
2022-10-08T01:35:18.631Z,6.70
2022-10-08T01:35:28.710Z,6.70
2022-10-08T01:35:38.794Z,6.70
2022-10-08T01:35:48.880Z,6.40
2022-10-08T01:35:58.941Z,6.40
2022-10-08T01:36:09.000Z,6.40
2022-10-08T01:36:19.061Z,6.60
2022-10-08T01:36:29.228Z,6.70
2022-10-08T01:36:39.261Z,6.60
2022-10-08T01:36:49.301Z,6.50
2022-10-08T01:36:59.380Z,6.60
2022-10-08T01:37:09.401Z,6.60
2022-10-08T01:37:19.472Z,6.70
2022-10-08T01:37:29.521Z,6.40
2022-10-08T01:37:39.562Z,6.40
2022-10-08T01:37:49.651Z,6.40
2022-10-08T01:37:59.681Z,7.00
2022-10-08T01:38:09.760Z,6.80
2022-10-08T01:38:19.842Z,6.60
2022-10-08T01:38:29.871Z,6.30
2022-10-08T01:38:39.909Z,6.40
2022-10-08T01:38:49.961Z,6.80
2022-10-08T01:39:00.013Z,6.90
2022-10-08T01:39:10.025Z,6.90
2022-10-08T01:39:20.061Z,6.80
2022-10-08T01:39:30.100Z,6.90
2022-10-08T01:39:40.132Z,7.20
2022-10-08T01:39:50.191Z,7.20
2022-10-08T01:40:00.234Z,7.00
2022-10-08T01:40:10.298Z,6.40
2022-10-08T01:40:20.363Z,6.30
2022-10-08T01:40:30.411Z,6.30
2022-10-08T01:40:40.468Z,6.90
2022-10-08T01:40:50.530Z,7.00
2022-10-08T01:41:00.579Z,6.80
2022-10-08T01:41:10.621Z,6.70
2022-10-08T01:41:20.682Z,6.70
2022-10-08T01:41:30.781Z,6.40
2022-10-08T01:41:40.824Z,6.40
2022-10-08T01:41:50.870Z,6.30
2022-10-08T01:42:00.910Z,6.40
2022-10-08T01:42:10.973Z,6.30
2022-10-08T01:42:21.012Z,6.20
2022-10-08T01:42:31.050Z,6.60
2022-10-08T01:42:41.101Z,6.80
2022-10-08T01:42:51.161Z,7.30
2022-10-08T01:43:01.200Z,6.70
2022-10-08T01:43:11.258Z,6.70
2022-10-08T01:43:21.361Z,6.40
2022-10-08T01:43:31.441Z,6.50
2022-10-08T01:43:41.481Z,6.30
2022-10-08T01:43:51.512Z,6.50
2022-10-08T01:44:01.553Z,7.20
2022-10-08T01:44:11.719Z,7.20
2022-10-08T01:44:21.775Z,7.20
2022-10-08T01:44:31.831Z,6.70
2022-10-08T01:44:41.866Z,6.70
2022-10-08T01:44:51.907Z,6.50
2022-10-08T01:45:01.950Z,6.70
2022-10-08T01:45:12.066Z,6.70
2022-10-08T01:45:22.153Z,6.40
2022-10-08T01:45:32.216Z,6.20
2022-10-08T01:45:42.293Z,6.40
2022-10-08T01:45:52.310Z,7.00
2022-10-08T01:46:02.312Z,7.00
2022-10-08T01:46:12.461Z,6.60
2022-10-08T01:46:22.500Z,6.50
2022-10-08T01:46:32.550Z,6.60
2022-10-08T01:46:42.621Z,7.00
2022-10-08T01:46:52.711Z,6.90
2022-10-08T01:47:02.811Z,6.90
2022-10-08T01:47:12.900Z,7.10
2022-10-08T01:47:22.971Z,7.30
2022-10-08T01:47:32.958Z,7.10
2022-10-08T01:47:43.077Z,6.90
2022-10-08T01:47:53.143Z,6.90
2022-10-08T01:48:03.196Z,6.70
2022-10-08T01:48:13.280Z,6.50
2022-10-08T01:48:23.343Z,6.50
2022-10-08T01:48:33.420Z,6.60
2022-10-08T01:48:43.468Z,6.50
2022-10-08T01:48:53.551Z,6.40
2022-10-08T01:49:03.610Z,6.30
2022-10-08T01:49:13.680Z,6.60
2022-10-08T01:49:23.759Z,6.50
2022-10-08T01:49:33.820Z,6.80
2022-10-08T01:49:43.881Z,7.00
2022-10-08T01:49:53.939Z,7.40
2022-10-08T01:50:04.027Z,7.40
2022-10-08T01:50:14.100Z,6.80
2022-10-08T01:50:24.158Z,6.70
2022-10-08T01:50:34.303Z,6.60
2022-10-08T01:50:44.362Z,6.90
2022-10-08T01:50:54.480Z,6.60
2022-10-08T01:51:04.498Z,6.90
2022-10-08T01:51:14.564Z,7.10
2022-10-08T01:51:24.640Z,7.20
2022-10-08T01:51:34.712Z,6.80
2022-10-08T01:51:44.781Z,6.90
2022-10-08T01:51:54.881Z,7.30
2022-10-08T01:52:04.950Z,7.70
2022-10-08T01:52:15.031Z,7.40
2022-10-08T01:52:25.120Z,7.00
2022-10-08T01:52:35.180Z,6.90
2022-10-08T01:52:45.656Z,6.90
2022-10-08T01:52:55.327Z,6.90
2022-10-08T01:53:05.518Z,6.90
2022-10-08T01:53:15.584Z,7.20
2022-10-08T01:53:25.811Z,7.20
2022-10-08T01:53:35.710Z,7.10
2022-10-08T01:53:45.770Z,6.80
2022-10-08T01:53:55.851Z,7.30
2022-10-08T01:54:05.950Z,7.50
2022-10-08T01:54:16.058Z,7.50
2022-10-08T01:54:26.060Z,7.00
2022-10-08T01:54:36.121Z,6.70
2022-10-08T01:54:46.271Z,6.60
2022-10-08T01:54:56.330Z,6.70
2022-10-08T01:55:06.410Z,7.10
2022-10-08T01:55:16.489Z,7.10
2022-10-08T01:55:26.629Z,7.50
2022-10-08T01:55:36.703Z,7.20
2022-10-08T01:55:46.788Z,7.10
2022-10-08T01:55:56.860Z,6.80
2022-10-08T01:56:06.971Z,7.00
2022-10-08T01:56:17.116Z,6.80
2022-10-08T01:56:27.181Z,7.00
2022-10-08T01:56:37.261Z,7.20
2022-10-08T01:56:47.330Z,7.50
2022-10-08T01:56:57.399Z,7.50
2022-10-08T01:57:07.469Z,7.10
2022-10-08T01:57:17.591Z,6.90
2022-10-08T01:57:27.638Z,6.60
2022-10-08T01:57:37.708Z,7.00
2022-10-08T01:57:47.718Z,7.10
2022-10-08T01:57:57.780Z,7.20
2022-10-08T01:58:07.889Z,6.70
2022-10-08T01:58:17.959Z,7.10
2022-10-08T01:58:28.027Z,6.90
2022-10-08T01:58:38.099Z,7.10
2022-10-08T01:58:48.188Z,6.90
2022-10-08T01:58:58.257Z,6.90
2022-10-08T01:59:08.319Z,6.80
2022-10-08T01:59:18.329Z,7.00
2022-10-08T01:59:28.397Z,6.90
2022-10-08T01:59:38.460Z,6.90
2022-10-08T01:59:48.539Z,6.70
2022-10-08T01:59:58.600Z,6.90
2022-10-08T02:00:08.680Z,7.10
2022-10-08T02:00:18.754Z,7.10
2022-10-08T02:00:28.840Z,7.00
2022-10-08T02:00:38.939Z,6.70
2022-10-08T02:00:49.054Z,6.60
2022-10-08T02:00:59.217Z,6.80
2022-10-08T02:01:09.171Z,7.00
2022-10-08T02:01:19.277Z,7.30
2022-10-08T02:01:29.439Z,7.50
2022-10-08T02:01:39.500Z,7.20
2022-10-08T02:01:49.645Z,6.60
2022-10-08T02:01:59.671Z,6.40
2022-10-08T02:02:09.782Z,6.60
2022-10-08T02:02:19.911Z,7.20
2022-10-08T02:02:30.039Z,7.10
2022-10-08T02:02:40.101Z,7.10
2022-10-08T02:02:49.999Z,6.80
2022-10-08T02:03:00.057Z,6.60
2022-10-08T02:03:10.119Z,7.10
2022-10-08T02:03:20.218Z,7.00
2022-10-08T02:03:30.279Z,6.50
2022-10-08T02:03:40.359Z,6.20
2022-10-08T02:03:50.421Z,6.30
2022-10-08T02:04:00.500Z,6.80
2022-10-08T02:04:10.571Z,6.90
2022-10-08T02:04:20.628Z,7.00
2022-10-08T02:04:30.610Z,7.20
2022-10-08T02:04:40.690Z,7.30
2022-10-08T02:04:50.749Z,7.70
2022-10-08T02:05:00.871Z,7.20
2022-10-08T02:05:10.939Z,7.50
2022-10-08T02:05:21.061Z,7.20
2022-10-08T02:05:31.188Z,7.20
2022-10-08T02:05:41.300Z,7.20
2022-10-08T02:05:51.371Z,7.40
2022-10-08T02:06:01.438Z,7.50
2022-10-08T02:06:11.549Z,7.40
2022-10-08T02:06:21.619Z,7.20
2022-10-08T02:06:31.698Z,7.30
2022-10-08T02:06:41.769Z,7.20
2022-10-08T02:06:51.876Z,7.10
2022-10-08T02:07:01.971Z,7.00
2022-10-08T02:07:12.030Z,7.30
2022-10-08T02:07:22.097Z,7.90
2022-10-08T02:07:32.163Z,7.90
2022-10-08T02:07:42.297Z,7.50
2022-10-08T02:07:52.350Z,7.00
2022-10-08T02:08:02.417Z,7.30
2022-10-08T02:08:12.468Z,7.80
2022-10-08T02:08:22.547Z,8.10
2022-10-08T02:08:32.699Z,7.60
2022-10-08T02:08:42.771Z,7.30
2022-10-08T02:08:52.908Z,6.90
2022-10-08T02:09:02.975Z,6.90
2022-10-08T02:09:13.099Z,7.10
2022-10-08T02:09:23.050Z,7.20
2022-10-08T02:09:33.138Z,7.60
2022-10-08T02:09:43.259Z,7.60
2022-10-08T02:09:53.330Z,7.70
2022-10-08T02:10:03.398Z,7.20
2022-10-08T02:10:13.508Z,7.10
2022-10-08T02:10:23.482Z,6.70
2022-10-08T02:10:33.536Z,7.10
2022-10-08T02:10:43.628Z,7.40
2022-10-08T02:10:53.700Z,7.30
2022-10-08T02:11:03.777Z,7.00
2022-10-08T02:11:13.843Z,7.10
2022-10-08T02:11:23.927Z,7.30
2022-10-08T02:11:34.067Z,7.40
2022-10-08T02:11:44.159Z,7.50
2022-10-08T02:11:54.268Z,7.50
2022-10-08T02:12:04.332Z,7.90
2022-10-08T02:12:14.428Z,7.50
2022-10-08T02:12:24.529Z,7.80
2022-10-08T02:12:34.600Z,7.80
2022-10-08T02:12:45.063Z,7.60
2022-10-08T02:12:54.667Z,7.50
2022-10-08T02:13:04.736Z,7.10
2022-10-08T02:13:14.829Z,7.30
2022-10-08T02:13:24.909Z,7.40
2022-10-08T02:13:34.994Z,7.80
2022-10-08T02:13:45.035Z,7.60
2022-10-08T02:13:55.109Z,8.30